Time;durP1;ratioP1;P1;durP2;ratioP2;P2;SDS_P1;SDS_P2;PMS_P1;PMS_P2;Temp;Humidity;BMP_temperature;BMP_pressure;BME280_temperature;BME280_humidity;BME280_pressure;Samples;Min_cycle;Max_cycle;Signal;HPM_P1;HPM_P2
2023/03/18 00:01:58;;;;;;;5.13;3.50;;;;;;;10.09;72.41;101940.53;4976127;28;20125;-89
2023/03/18 00:04:24;;;;;;;5.60;3.60;;;;;;;10.13;71.54;101947.78;4972957;28;20030;-90
2023/03/18 00:06:50;;;;;;;5.43;3.35;;;;;;;10.19;72.36;101949.97;4956094;28;20026;-90
2023/03/18 00:09:17;;;;;;;7.07;3.80;;;;;;;9.85;72.25;101892.63;4956851;28;20647;-90
2023/03/18 00:11:42;;;;;;;5.13;3.78;;;;;;;10.30;71.98;101961.22;4981743;28;20064;-89
2023/03/18 00:14:08;;;;;;;5.28;3.90;;;;;;;10.19;72.11;101939.53;4957655;28;20023;-88
2023/03/18 00:16:35;;;;;;;6.95;3.67;;;;;;;9.96;71.93;101896.06;4963618;28;20393;-90
2023/03/18 00:19:02;;;;;;;5.25;3.35;;;;;;;10.21;72.09;101937.03;4975342;28;20026;-90
2023/03/18 00:21:29;;;;;;;5.85;3.80;;;;;;;9.84;72.59;101901.28;4947855;28;20085;-89
2023/03/18 00:23:57;;;;;;;5.10;3.70;;;;;;;10.01;71.88;101920.78;4958578;28;20108;-89
2023/03/18 00:26:25;;;;;;;5.32;3.55;;;;;;;10.07;72.31;101942.09;4960785;28;20034;-90
2023/03/18 00:28:52;;;;;;;5.55;3.67;;;;;;;10.08;72.43;101954.38;4990258;28;20026;-89
2023/03/18 00:31:18;;;;;;;4.95;3.53;;;;;;;10.03;72.23;101937.44;4957092;28;20133;-89
2023/03/18 00:33:49;;;;;;;10.35;3.88;;;;;;;10.13;71.98;101944.28;4975443;28;20160;-89
2023/03/18 00:36:17;;;;;;;4.38;3.20;;;;;;;10.05;71.51;101938.47;4959375;28;20511;-89
2023/03/18 00:38:49;;;;;;;5.07;3.58;;;;;;;10.04;72.02;101944.50;4955561;28;20050;-89
2023/03/18 00:41:16;;;;;;;5.30;3.50;;;;;;;9.95;71.64;101902.06;4975796;28;20109;-89
2023/03/18 00:43:45;;;;;;;7.13;3.42;;;;;;;10.03;71.16;101931.34;4978887;28;20042;-89
2023/03/18 00:46:13;;;;;;;4.88;3.13;;;;;;;10.09;71.81;101926.56;4972132;28;20018;-90
2023/03/18 00:48:39;;;;;;;3.97;3.20;;;;;;;9.84;71.58;101896.06;4955282;28;20069;-89
2023/03/18 00:51:05;;;;;;;5.00;3.05;;;;;;;10.15;71.66;101937.47;4989331;28;20026;-89
2023/03/18 00:53:31;;;;;;;6.18;3.30;;;;;;;10.02;72.17;101903.44;4973174;28;20038;-89
2023/03/18 00:55:57;;;;;;;5.07;3.40;;;;;;;9.93;72.16;101907.16;4977527;28;20030;-89
2023/03/18 00:58:24;;;;;;;6.25;3.28;;;;;;;10.05;71.79;101912.38;4971167;28;20042;-89
2023/03/18 01:00:51;;;;;;;4.63;3.50;;;;;;;10.05;71.37;101912.38;4974995;28;20503;-89
2023/03/18 01:03:17;;;;;;;6.45;3.40;;;;;;;10.16;71.85;101921.94;4958760;28;20034;-89
2023/03/18 01:05:44;;;;;;;4.97;3.45;;;;;;;10.13;72.13;101929.53;4958572;28;20026;-89
2023/03/18 01:08:11;;;;;;;4.90;3.30;;;;;;;10.18;72.61;101935.06;4975480;28;20041;-90
2023/03/18 01:10:38;;;;;;;4.38;3.47;;;;;;;10.10;72.77;101911.03;4962102;28;20118;-88
2023/03/18 01:13:04;;;;;;;5.72;3.17;;;;;;;10.02;72.82;101912.16;4958752;28;20026;-90
2023/03/18 01:15:30;;;;;;;5.70;3.13;;;;;;;10.23;72.67;101931.13;4981447;28;20053;-89
2023/03/18 01:17:57;;;;;;;3.58;3.00;;;;;;;10.25;72.80;101937.38;4972583;28;20061;-89
2023/03/18 01:20:24;;;;;;;5.35;3.50;;;;;;;10.15;73.06;101919.19;4958989;28;20143;-89
2023/03/18 01:22:50;;;;;;;5.30;3.55;;;;;;;10.11;72.73;101910.22;4957746;28;20035;-88
2023/03/18 01:25:16;;;;;;;4.72;3.00;;;;;;;10.26;72.73;101936.56;4958495;28;20037;-88
2023/03/18 01:27:42;;;;;;;4.07;3.00;;;;;;;10.16;72.81;101915.81;4958171;28;20041;-87
2023/03/18 01:30:10;;;;;;;5.03;3.20;;;;;;;9.99;72.71;101891.06;4974523;28;20040;-88
2023/03/18 01:32:36;;;;;;;5.57;3.42;;;;;;;10.28;72.89;101936.69;4974042;28;20030;-88
2023/03/18 01:35:03;;;;;;;3.97;3.08;;;;;;;10.11;72.88;101905.00;4973990;28;20030;-88
2023/03/18 01:37:28;;;;;;;;;;;;;;;10.33;72.66;101937.97;4973959;28;20038;-88
2023/03/18 01:39:54;;;;;;;5.00;3.05;;;;;;;10.25;73.20;101942.59;4998801;28;19918;-89
2023/03/18 01:42:22;;;;;;;4.35;3.05;;;;;;;10.22;73.12;101929.28;4990753;28;20093;-89
2023/03/18 01:44:47;;;;;;;4.35;3.05;;;;;;;10.18;73.08;101914.19;4968085;28;20042;-89
2023/03/18 01:47:16;;;;;;;3.90;2.70;;;;;;;10.31;72.37;101935.25;4992791;28;20388;-89
2023/03/18 01:49:46;;;;;;;5.18;3.20;;;;;;;10.21;72.64;101926.59;4967156;28;20055;-89
2023/03/18 01:52:17;;;;;;;4.85;3.05;;;;;;;10.21;72.95;101924.88;4991123;28;20024;-89
2023/03/18 01:54:52;;;;;;;3.95;2.75;;;;;;;9.92;72.94;101879.25;4975327;28;20112;-89
2023/03/18 01:57:19;;;;;;;5.13;3.15;;;;;;;10.33;72.92;101945.81;4981601;28;20487;-90
2023/03/18 01:59:47;;;;;;;3.33;2.65;;;;;;;10.21;73.56;101918.75;4978640;28;20026;-88
2023/03/18 02:02:14;;;;;;;3.92;2.80;;;;;;;10.29;73.27;101944.66;4981339;28;20440;-88
2023/03/18 02:04:49;;;;;;;8.88;2.72;;;;;;;10.06;72.86;101893.34;5010405;28;20026;-89
2023/03/18 02:07:18;;;;;;;5.47;2.90;;;;;;;10.28;72.83;101940.19;4994475;28;20113;-88
2023/03/18 02:09:45;;;;;;;3.33;2.90;;;;;;;10.00;73.07;101908.53;4992237;28;20458;-89
2023/03/18 02:12:16;;;;;;;4.13;2.90;;;;;;;10.15;72.88;101919.19;4990506;28;20109;-89
2023/03/18 02:14:44;;;;;;;3.58;2.70;;;;;;;10.06;73.06;101895.94;4972895;28;20041;-90
2023/03/18 02:17:19;;;;;;;3.15;2.60;;;;;;;10.31;72.86;101958.75;4993900;28;20057;-90
2023/03/18 02:20:12;;;;;;;3.53;2.47;;;;;;;10.28;73.29;101952.34;4977110;28;20049;-89
2023/03/18 02:22:55;;;;;;;3.90;2.75;;;;;;;10.27;73.01;101934.88;4993574;28;20514;-90
2023/03/18 02:25:23;;;;;;;3.03;2.55;;;;;;;10.28;73.14;101957.56;4988046;28;20034;-89
2023/03/18 02:27:58;;;;;;;4.90;3.17;;;;;;;10.15;73.09;101938.38;4999096;28;20040;-90
2023/03/18 02:30:27;;;;;;;4.70;2.95;;;;;;;10.23;72.96;101941.56;4988700;28;20029;-89
2023/03/18 02:32:54;;;;;;;3.95;2.67;;;;;;;10.16;72.91;101926.25;4996133;28;20022;-88
2023/03/18 02:35:21;;;;;;;3.90;2.60;;;;;;;10.15;73.11;101930.53;4980977;28;20044;-89
2023/03/18 02:37:46;;;;;;;3.95;2.85;;;;;;;10.06;72.98;101900.25;4982478;28;20046;-88
2023/03/18 02:40:18;;;;;;;3.97;2.50;;;;;;;10.13;73.22;101924.31;4981337;28;20030;-91
2023/03/18 02:42:47;;;;;;;5.15;3.13;;;;;;;10.14;72.98;101914.78;4984963;28;20117;-90
2023/03/18 02:45:29;;;;;;;4.20;2.58;;;;;;;10.29;73.35;101938.50;4995582;28;20443;-88
2023/03/18 02:47:55;;;;;;;3.90;2.55;;;;;;;10.11;73.40;101923.28;4971114;28;20111;-90
2023/03/18 02:50:20;;;;;;;4.65;2.67;;;;;;;10.19;73.47;101936.91;4994903;28;20042;-90
2023/03/18 02:52:58;;;;;;;4.00;2.75;;;;;;;10.27;73.25;101953.16;4978011;28;20034;-90
2023/03/18 02:55:27;;;;;;;3.38;2.75;;;;;;;10.19;72.90;101931.69;4995042;28;20115;-90
2023/03/18 02:57:53;;;;;;;3.83;2.50;;;;;;;10.19;73.36;101948.25;4988841;28;20522;-89
2023/03/18 03:00:24;;;;;;;3.13;2.40;;;;;;;10.10;73.50;101912.75;5011071;28;20026;-89
2023/03/18 03:02:49;;;;;;;4.35;2.78;;;;;;;10.10;73.24;101918.88;4980228;28;20026;-90
2023/03/18 03:05:15;;;;;;;3.95;2.78;;;;;;;10.25;73.64;101946.91;4980855;28;20034;-90
2023/03/18 03:07:41;;;;;;;2.90;2.33;;;;;;;10.14;73.66;101931.34;4983828;28;20034;-90
2023/03/18 03:10:10;;;;;;;3.40;2.53;;;;;;;10.11;73.27;101918.06;5009806;28;20037;-89
2023/03/18 03:12:37;;;;;;;3.58;2.70;;;;;;;10.13;72.82;101924.31;4995967;28;20069;-88
2023/03/18 03:15:05;;;;;;;4.35;2.95;;;;;;;9.86;72.46;101889.22;4977301;28;20058;-89
2023/03/18 03:17:34;;;;;;;3.10;2.47;;;;;;;10.14;72.74;101918.31;4989949;28;20030;-90
2023/03/18 03:20:05;;;;;;;4.57;2.83;;;;;;;10.24;72.98;101943.38;4978456;28;20073;-90
2023/03/18 03:22:33;;;;;;;2.72;2.33;;;;;;;9.97;73.33;101900.50;4967635;28;20049;-90
2023/03/18 03:25:00;;;;;;;4.90;2.53;;;;;;;10.14;72.90;101922.63;4997166;28;20026;-90
2023/03/18 03:27:27;;;;;;;4.70;2.53;;;;;;;10.13;72.90;101919.09;4993460;28;20022;-90
2023/03/18 03:29:54;;;;;;;3.20;2.40;;;;;;;10.18;73.36;101924.63;4987830;28;20050;-90
2023/03/18 03:32:21;;;;;;;3.00;2.30;;;;;;;9.80;73.17;101880.97;4996683;28;20026;-90
2023/03/18 03:34:48;;;;;;;3.00;2.35;;;;;;;9.87;73.14;101895.38;4987623;28;20091;-91
2023/03/18 03:37:14;;;;;;;3.17;2.47;;;;;;;10.13;73.00;101942.56;4978877;28;20022;-91
2023/03/18 03:39:43;;;;;;;3.67;2.60;;;;;;;10.03;73.07;101923.50;4996218;28;20046;-90
2023/03/18 03:42:09;;;;;;;4.28;2.75;;;;;;;9.93;71.50;101928.03;4978601;28;20117;-89
2023/03/18 03:44:36;;;;;;;3.75;2.60;;;;;;;10.07;72.57;101944.72;4994053;28;20105;-89
2023/03/18 03:47:02;;;;;;;3.70;2.60;;;;;;;10.10;72.38;101937.13;4989125;28;20038;-89
2023/03/18 03:49:28;;;;;;;2.65;2.30;;;;;;;10.21;73.14;101964.03;4981651;28;20473;-89
2023/03/18 03:51:56;;;;;;;3.40;2.45;;;;;;;10.19;73.16;101958.69;5009453;28;20030;-88
2023/03/18 03:54:31;;;;;;;2.63;2.17;;;;;;;10.14;72.99;101943.50;5001993;28;20698;-90
2023/03/18 03:56:57;;;;;;;2.50;2.30;;;;;;;10.11;73.07;101938.03;4979809;28;20037;-89
2023/03/18 03:59:23;;;;;;;3.28;2.05;;;;;;;10.06;73.29;101929.88;5001944;28;20030;-90
2023/03/18 04:01:48;;;;;;;2.63;2.03;;;;;;;10.02;72.45;101908.66;4993775;28;20110;-90
2023/03/18 04:04:14;;;;;;;3.78;2.30;;;;;;;10.03;72.06;101937.44;4980170;28;20026;-90
2023/03/18 04:06:41;;;;;;;3.88;2.70;;;;;;;9.85;72.70;101917.84;4995824;28;20483;-90
2023/03/18 04:09:08;;;;;;;2.65;2.00;;;;;;;10.12;71.82;101946.00;4984867;28;20110;-90
2023/03/18 04:11:35;;;;;;;3.47;2.63;;;;;;;10.07;71.80;101938.59;4976588;28;20476;-90
2023/03/18 04:14:03;;;;;;;4.18;2.10;;;;;;;10.07;72.63;101946.44;4982903;28;20045;-90
2023/03/18 04:16:29;;;;;;;4.55;2.53;;;;;;;9.74;72.28;101899.66;4990509;28;20023;-88
2023/03/18 04:18:54;;;;;;;3.45;2.65;;;;;;;9.90;72.32;101922.59;5004954;28;20049;-88
2023/03/18 04:21:20;;;;;;;2.60;2.20;;;;;;;10.01;72.14;101948.56;4993018;28;20032;-88
2023/03/18 04:23:45;;;;;;;3.58;2.42;;;;;;;9.85;71.69;101892.63;5004208;28;20132;-87
2023/03/18 04:26:11;;;;;;;3.65;2.20;;;;;;;10.04;71.82;101933.16;4992704;28;20078;-88
2023/03/18 04:28:37;;;;;;;4.35;2.45;;;;;;;10.08;71.85;101954.38;4991435;28;20026;-87
2023/03/18 04:31:03;;;;;;;2.97;2.20;;;;;;;10.01;72.07;101944.25;4986938;28;20030;-88
2023/03/18 04:33:29;;;;;;;2.97;2.28;;;;;;;9.93;71.99;101930.66;4998443;28;20059;-87
2023/03/18 04:35:56;;;;;;;2.47;2.13;;;;;;;9.82;71.68;101914.97;4994690;28;20033;-87
2023/03/18 04:38:22;;;;;;;3.17;2.25;;;;;;;10.01;71.30;101931.22;4987262;28;20055;-89
2023/03/18 04:40:49;;;;;;;6.00;2.58;;;;;;;9.77;71.54;101899.88;4976501;28;20014;-88
2023/03/18 04:43:14;;;;;;;4.43;2.55;;;;;;;9.67;71.63;101888.63;4984255;28;20037;-88
2023/03/18 04:45:42;;;;;;;3.28;2.53;;;;;;;9.98;71.39;101938.81;4975179;28;20022;-89
2023/03/18 04:48:09;;;;;;;2.83;2.10;;;;;;;9.79;71.90;101895.69;4958388;28;20037;-87
2023/03/18 04:50:35;;;;;;;3.22;2.42;;;;;;;9.76;71.24;101897.19;4969125;28;20026;-87
2023/03/18 04:53:00;;;;;;;2.88;2.05;;;;;;;9.73;71.37;101891.72;4986326;28;20460;-87
2023/03/18 04:55:26;;;;;;;4.07;2.45;;;;;;;9.75;71.38;101901.47;4983794;28;20498;-86
2023/03/18 04:57:52;;;;;;;3.00;2.25;;;;;;;9.87;71.68;101924.06;4992197;28;20040;-87
2023/03/18 05:00:21;;;;;;;2.88;2.25;;;;;;;9.88;70.74;101962.41;4959859;28;20026;-89
2023/03/18 05:02:49;;;;;;;4.32;2.30;;;;;;;9.88;70.57;101934.59;4984599;28;20038;-89
2023/03/18 05:05:14;;;;;;;3.20;1.90;;;;;;;9.34;70.95;101834.06;4972055;28;20034;-86
2023/03/18 05:07:42;;;;;;;2.60;2.10;;;;;;;9.63;70.71;101903.16;4953420;28;20034;-92
2023/03/18 05:10:15;;;;;;;4.07;2.30;;;;;;;9.85;70.80;101934.38;4993631;28;20042;-92
2023/03/18 05:12:47;;;;;;;3.08;2.10;;;;;;;9.87;71.15;101934.50;4955475;28;20483;-89
2023/03/18 05:15:14;;;;;;;2.85;2.13;;;;;;;9.84;71.03;101939.47;4985485;28;20034;-87
2023/03/18 05:17:39;;;;;;;2.60;2.15;;;;;;;9.75;69.81;101930.16;4970440;28;20039;-89
2023/03/18 05:20:06;;;;;;;4.45;2.15;;;;;;;9.65;70.68;101904.19;4976898;28;20035;-89
2023/03/18 05:22:31;;;;;;;2.90;2.15;;;;;;;9.64;71.26;101898.84;4962683;28;20046;-90
2023/03/18 05:24:57;;;;;;;2.75;2.10;;;;;;;9.81;70.22;101924.50;4980634;28;20053;-87
2023/03/18 05:27:26;;;;;;;3.92;2.10;;;;;;;9.80;71.43;101925.31;4971648;28;20419;-90
2023/03/18 05:29:54;;;;;;;3.63;2.00;;;;;;;9.77;71.18;101919.84;4995538;28;20491;-87
2023/03/18 05:32:20;;;;;;;2.47;2.22;;;;;;;9.75;70.74;101924.03;4973092;28;20030;-88
2023/03/18 05:34:47;;;;;;;2.95;2.13;;;;;;;9.71;70.56;101911.56;4964757;28;20058;-89
2023/03/18 05:37:14;;;;;;;2.63;2.20;;;;;;;9.55;70.73;101904.28;5000142;28;20042;-87
2023/03/18 05:39:40;;;;;;;3.03;2.08;;;;;;;9.68;70.83;101906.13;4986404;28;20050;-88
2023/03/18 05:42:07;;;;;;;3.38;2.20;;;;;;;9.59;71.06;101890.69;4990259;28;20033;-88
2023/03/18 05:44:32;;;;;;;2.85;2.10;;;;;;;9.58;70.70;101900.19;4972113;28;20483;-87
2023/03/18 05:46:58;;;;;;;3.33;2.00;;;;;;;9.82;70.78;101934.16;4986522;28;20114;-87
2023/03/18 05:49:28;;;;;;;2.53;1.98;;;;;;;9.84;70.87;101961.28;4954900;28;20514;-89
2023/03/18 05:51:54;;;;;;;2.95;1.80;;;;;;;9.77;70.91;101948.53;4971674;28;20473;-91
2023/03/18 05:54:21;;;;;;;3.63;2.40;;;;;;;9.85;71.02;101956.97;4957167;28;20042;-90
2023/03/18 05:57:02;;;;;;;4.65;2.30;;;;;;;9.69;70.96;101936.63;4974969;28;20590;-90
2023/03/18 05:59:30;;;;;;;3.05;2.30;;;;;;;9.58;71.31;101923.66;4992966;28;20054;-90
2023/03/18 06:02:02;;;;;;;2.72;2.08;;;;;;;9.79;71.26;101965.22;4953311;28;20050;-91
2023/03/18 06:04:36;;;;;;;4.93;2.10;;;;;;;9.74;70.92;101954.44;4959341;28;20034;-90
2023/03/18 06:07:04;;;;;;;4.38;2.33;;;;;;;9.59;71.34;101942.84;4990906;28;20028;-90
2023/03/18 06:09:32;;;;;;;3.50;2.28;;;;;;;9.79;71.28;101967.84;4983868;28;20092;-90
2023/03/18 06:11:58;;;;;;;5.07;2.35;;;;;;;9.39;71.23;101915.22;4976710;28;20034;-90
2023/03/18 06:14:28;;;;;;;2.75;2.03;;;;;;;9.67;71.20;101956.44;4976814;28;20031;-90
2023/03/18 06:16:58;;;;;;;2.97;1.90;;;;;;;9.71;70.93;101951.59;4984662;28;20050;-90
2023/03/18 06:19:24;;;;;;;4.07;2.03;;;;;;;9.81;71.04;101967.97;4960984;28;20030;-88
2023/03/18 06:22:00;;;;;;;3.67;2.30;;;;;;;9.75;70.41;101955.34;4975204;28;20785;-92
2023/03/18 06:24:45;;;;;;;6.43;2.38;;;;;;;9.79;71.56;101979.16;4961445;28;20578;-92
2023/03/18 06:27:12;;;;;;;4.05;2.40;;;;;;;9.75;71.38;101977.13;4961796;28;20034;-91
2023/03/18 06:29:38;;;;;;;3.08;2.08;;;;;;;9.68;71.67;101974.84;4987619;28;20510;-89
2023/03/18 06:32:04;;;;;;;4.57;2.25;;;;;;;9.72;71.70;101968.16;4959326;28;20030;-93
2023/03/18 06:34:30;;;;;;;3.63;2.35;;;;;;;9.74;70.51;101956.16;4973933;28;20038;-91
2023/03/18 06:36:58;;;;;;;4.93;2.40;;;;;;;9.63;71.68;101939.69;4974792;28;20545;-91
2023/03/18 06:39:23;;;;;;;3.88;2.17;;;;;;;9.82;71.26;101967.16;4973056;28;20389;-89
2023/03/18 06:41:51;;;;;;;4.63;2.00;;;;;;;9.59;71.69;101940.25;4971447;28;20126;-92
2023/03/18 06:44:18;;;;;;;2.83;2.00;;;;;;;9.75;71.23;101963.16;4991513;28;20511;-88
2023/03/18 06:46:47;;;;;;;4.13;2.47;;;;;;;9.69;71.34;101947.03;4951302;28;20488;-89
2023/03/18 06:49:14;;;;;;;3.40;2.17;;;;;;;9.81;71.05;101962.75;4976750;28;20033;-89
2023/03/18 06:51:42;;;;;;;3.15;2.08;;;;;;;9.84;71.24;101989.97;4977609;28;20048;-90
2023/03/18 06:54:08;;;;;;;5.00;2.50;;;;;;;9.75;71.20;101971.91;4972424;28;20022;-90
2023/03/18 06:56:38;;;;;;;3.80;2.25;;;;;;;9.74;71.38;101979.63;4977699;28;20044;-89
2023/03/18 06:59:06;;;;;;;4.13;2.08;;;;;;;9.51;71.38;101925.69;4978563;28;20088;-89
2023/03/18 07:01:34;;;;;;;4.68;2.20;;;;;;;9.77;71.07;102006.84;4974824;28;20263;-89
2023/03/18 07:04:02;;;;;;;3.80;2.13;;;;;;;9.38;71.89;101916.03;4971909;28;20031;-89
2023/03/18 07:06:29;;;;;;;5.90;2.10;;;;;;;9.74;71.97;101972.69;4970946;28;20061;-90
2023/03/18 07:08:55;;;;;;;4.72;2.20;;;;;;;9.92;71.92;101999.28;4952730;28;20097;-89
2023/03/18 07:11:21;;;;;;;2.75;2.00;;;;;;;9.71;72.04;101979.38;4972048;28;20037;-89
2023/03/18 07:13:47;;;;;;;4.30;2.15;;;;;;;9.79;72.01;101986.09;4955246;28;20042;-90
2023/03/18 07:16:13;;;;;;;3.83;1.90;;;;;;;9.90;72.03;102005.19;4975258;28;20121;-90
2023/03/18 07:18:41;;;;;;;2.38;2.00;;;;;;;9.90;72.28;102006.06;4963002;28;20037;-89
2023/03/18 07:21:08;;;;;;;3.50;2.10;;;;;;;9.66;72.57;101973.81;4971232;28;20042;-88
2023/03/18 07:23:34;;;;;;;3.17;2.10;;;;;;;9.82;72.61;102008.88;4977414;28;20436;-89
2023/03/18 07:26:00;;;;;;;2.97;2.20;;;;;;;9.65;72.68;101965.84;4974809;28;20069;-89
2023/03/18 07:28:27;;;;;;;3.72;2.40;;;;;;;9.84;72.72;101996.88;4958299;28;20125;-87
2023/03/18 07:30:53;;;;;;;3.30;2.03;;;;;;;9.89;72.93;102006.88;4992326;28;20031;-89
2023/03/18 07:33:19;;;;;;;3.17;2.30;;;;;;;9.61;72.50;101946.47;4967668;28;20400;-88
2023/03/18 07:35:44;;;;;;;3.90;2.10;;;;;;;9.77;73.08;101996.41;4980865;28;20030;-88
2023/03/18 07:38:11;;;;;;;3.05;2.20;;;;;;;9.67;73.28;101978.25;4974145;28;20053;-88
2023/03/18 07:40:37;;;;;;;5.07;2.40;;;;;;;9.89;72.60;102009.50;4988589;28;20042;-88
2023/03/18 07:43:04;;;;;;;2.53;1.92;;;;;;;9.70;73.12;101974.97;4998132;28;20072;-89
2023/03/18 07:45:29;;;;;;;2.40;2.20;;;;;;;9.56;72.37;101945.19;5000972;28;20034;-89
2023/03/18 07:47:55;;;;;;;3.33;2.00;;;;;;;9.52;72.80;101957.09;5001045;28;20535;-89
2023/03/18 07:50:21;;;;;;;4.60;2.10;;;;;;;9.69;72.98;101979.25;5004216;28;20038;-89
2023/03/18 07:52:47;;;;;;;4.00;2.15;;;;;;;9.64;73.14;101969.28;5003931;28;20112;-89
2023/03/18 07:55:13;;;;;;;2.85;2.00;;;;;;;9.79;73.47;102000.03;4978044;28;20046;-89
2023/03/18 07:57:43;;;;;;;2.15;1.90;;;;;;;9.74;73.58;101995.28;4992619;28;20026;-90
2023/03/18 08:00:14;;;;;;;4.43;2.20;;;;;;;9.63;72.99;101968.38;4986739;28;20499;-89
2023/03/18 08:02:41;;;;;;;3.55;2.03;;;;;;;10.02;73.21;102028.69;4976785;28;20578;-86
2023/03/18 08:05:09;;;;;;;3.85;1.95;;;;;;;10.06;72.79;102018.59;4997429;28;20060;-89
2023/03/18 08:07:36;;;;;;;4.35;2.05;;;;;;;10.04;72.55;102025.41;4993797;28;20030;-90
2023/03/18 08:10:10;;;;;;;3.38;2.25;;;;;;;9.89;73.38;102003.38;4979094;28;20030;-90
2023/03/18 08:12:37;;;;;;;3.33;2.22;;;;;;;9.73;73.37;101972.56;5001124;28;20499;-90
2023/03/18 08:15:10;;;;;;;4.55;1.92;;;;;;;10.00;72.86;102002.47;4996631;28;20029;-91
2023/03/18 08:17:37;;;;;;;2.17;1.63;;;;;;;10.09;72.58;102012.72;4996321;28;20032;-90
2023/03/18 08:20:07;;;;;;;3.22;2.00;;;;;;;10.00;72.57;101992.03;4982756;28;20032;-90
2023/03/18 08:22:33;;;;;;;3.30;2.20;;;;;;;9.83;73.70;101990.75;5006987;28;20029;-90
2023/03/18 08:25:03;;;;;;;3.40;2.20;;;;;;;9.95;73.45;102003.84;4981038;28;20093;-89
2023/03/18 08:27:35;;;;;;;4.80;2.35;;;;;;;10.08;72.82;102005.69;5006537;28;20021;-89
2023/03/18 08:30:03;;;;;;;4.20;2.30;;;;;;;10.16;73.37;102033.28;4995718;28;20498;-90
2023/03/18 08:32:32;;;;;;;4.10;2.00;;;;;;;10.22;73.86;102033.72;4988164;28;20022;-91
2023/03/18 08:35:04;;;;;;;3.15;2.22;;;;;;;9.92;74.31;102000.97;4978652;28;20775;-87
2023/03/18 08:37:30;;;;;;;3.75;2.17;;;;;;;10.05;74.24;102010.66;5000678;28;20066;-90
2023/03/18 08:39:59;;;;;;;3.50;2.20;;;;;;;9.97;74.50;102017.91;5001005;28;20513;-91
2023/03/18 08:42:24;;;;;;;5.57;2.78;;;;;;;10.11;74.37;102027.69;4977829;28;20037;-91
2023/03/18 08:44:50;;;;;;;6.85;2.55;;;;;;;10.04;74.25;102004.53;4978774;28;20031;-89
2023/03/18 08:47:20;;;;;;;8.20;3.17;;;;;;;10.18;74.65;102029.06;4982726;28;20637;-90
2023/03/18 08:49:48;;;;;;;5.57;3.03;;;;;;;9.97;74.91;102005.78;4995538;28;20124;-91
2023/03/18 08:52:15;;;;;;;5.30;3.05;;;;;;;10.05;75.39;102001.13;4997194;28;20116;-90
2023/03/18 08:54:41;;;;;;;5.43;2.70;;;;;;;10.19;75.76;102037.00;4988948;28;20040;-91
2023/03/18 08:57:10;;;;;;;4.85;2.80;;;;;;;9.67;75.51;101949.56;4977823;28;20025;-91
2023/03/18 08:59:36;;;;;;;5.63;2.72;;;;;;;9.93;75.59;101987.16;4995201;28;20037;-91
2023/03/18 09:02:29;;;;;;;6.68;2.50;;;;;;;10.18;75.36;102013.38;4994824;28;20021;-90
2023/03/18 09:04:59;;;;;;;5.57;2.65;;;;;;;10.22;75.88;102019.75;4987015;28;20041;-91
2023/03/18 09:07:27;;;;;;;5.38;2.92;;;;;;;10.24;75.57;102028.63;4987832;28;20105;-92
2023/03/18 09:09:53;;;;;;;7.15;3.08;;;;;;;10.22;76.08;102025.88;4990970;28;20096;-92
2023/03/18 09:12:25;;;;;;;4.85;2.90;;;;;;;10.23;76.32;102024.19;5002338;28;20520;-91
2023/03/18 09:14:57;;;;;;;5.28;2.95;;;;;;;10.27;76.36;102034.09;4979397;28;20026;-92
2023/03/18 09:17:28;;;;;;;5.45;2.70;;;;;;;10.26;75.97;102024.41;4983716;28;20033;-91
2023/03/18 09:19:57;;;;;;;4.78;2.90;;;;;;;10.22;76.23;102014.53;4977300;28;20385;-91
2023/03/18 09:22:42;;;;;;;5.63;3.20;;;;;;;10.30;76.11;102023.91;4978627;28;20511;-91
2023/03/18 09:25:09;;;;;;;6.57;3.22;;;;;;;10.05;75.87;101980.22;4988414;28;20049;-91
2023/03/18 09:27:36;;;;;;;8.07;3.17;;;;;;;10.07;76.43;101983.88;4976922;28;20385;-91
2023/03/18 09:30:08;;;;;;;6.15;3.30;;;;;;;10.19;75.53;102004.78;4968507;28;20077;-91
2023/03/18 09:32:41;;;;;;;7.57;3.40;;;;;;;10.32;76.78;102023.22;4994008;28;20091;-91
2023/03/18 09:35:15;;;;;;;7.95;3.40;;;;;;;10.29;75.91;102019.44;4968584;28;20416;-94
2023/03/18 09:37:44;;;;;;;5.28;3.10;;;;;;;10.10;76.75;101973.69;5009738;28;20030;-90
2023/03/18 09:40:59;;;;;;;6.85;3.50;;;;;;;10.38;77.24;102014.94;4979226;28;20037;-91
2023/03/18 09:44:07;;;;;;;6.93;3.40;;;;;;;10.35;77.12;102013.00;4993345;28;20035;-93
2023/03/18 09:47:17;;;;;;;6.13;3.15;;;;;;;10.38;77.63;102008.00;4988749;28;20029;-91
2023/03/18 09:50:13;;;;;;;6.60;3.13;;;;;;;10.41;76.42;102009.94;4992949;28;20030;-91
2023/03/18 09:52:53;;;;;;;3.88;3.10;;;;;;;10.32;76.86;101990.97;4991204;28;20035;-92
2023/03/18 09:55:45;;;;;;;4.00;2.53;;;;;;;10.50;77.15;102010.63;4993118;28;20037;-93
2023/03/18 10:01:37;;;;;;;4.18;3.10;;;;;;;10.50;77.33;102000.19;5006071;28;20060;-90
2023/03/18 10:04:31;;;;;;;7.57;3.08;;;;;;;10.51;77.04;101998.47;4979445;28;20054;-93
2023/03/18 10:07:06;;;;;;;5.15;3.30;;;;;;;10.43;77.68;101976.09;5001567;28;20146;-91
2023/03/18 10:10:20;;;;;;;5.57;2.80;;;;;;;10.58;77.59;101993.81;4978520;28;20029;-90
2023/03/18 10:13:25;;;;;;;4.95;3.28;;;;;;;10.57;77.08;101993.72;4975907;28;20538;-90
2023/03/18 10:16:03;;;;;;;7.22;3.47;;;;;;;10.49;77.24;101989.63;4994495;28;20026;-88
2023/03/18 10:18:36;;;;;;;7.60;3.45;;;;;;;10.45;77.73;101983.25;4974599;28;20041;-89
2023/03/18 10:21:36;;;;;;;5.93;3.67;;;;;;;10.51;77.17;101983.69;4968938;28;20030;-91
2023/03/18 10:24:37;;;;;;;5.68;3.25;;;;;;;10.54;77.61;101988.25;4983585;28;20037;-91
2023/03/18 10:27:18;;;;;;;7.18;3.65;;;;;;;10.45;77.60;101966.69;4994217;28;20034;-90
2023/03/18 10:30:27;;;;;;;5.10;3.40;;;;;;;10.57;77.39;101978.03;4991000;28;20037;-91
2023/03/18 10:36:05;;;;;;;5.30;3.08;;;;;;;10.53;77.68;101950.78;4997341;28;20038;-91
2023/03/18 10:38:40;;;;;;;4.93;3.20;;;;;;;10.58;77.63;101958.94;5002839;28;20058;-91
2023/03/18 10:41:31;;;;;;;5.43;3.03;;;;;;;10.68;77.95;101976.19;4994289;28;20014;-92
2023/03/18 10:43:57;;;;;;;6.50;3.50;;;;;;;10.51;77.86;101943.63;4978531;28;20048;-93
2023/03/18 10:46:25;;;;;;;4.93;3.28;;;;;;;10.32;77.64;101908.31;4981415;28;20099;-93
2023/03/18 10:48:55;;;;;;;5.93;3.22;;;;;;;10.48;77.74;101919.91;4978595;28;20113;-93
2023/03/18 10:51:44;;;;;;;6.47;3.30;;;;;;;10.77;77.83;101955.97;5015272;28;20106;-94
2023/03/18 10:54:12;;;;;;;8.60;3.60;;;;;;;10.72;77.79;101958.25;4991161;28;20030;-93
2023/03/18 10:56:56;;;;;;;8.25;4.13;;;;;;;10.66;77.44;101952.56;4980739;28;20065;-93
2023/03/18 10:59:38;;;;;;;6.00;3.85;;;;;;;10.61;78.04;101932.16;5009607;28;20022;-89
2023/03/18 11:02:35;;;;;;;6.47;3.53;;;;;;;10.76;78.65;101955.06;5009416;28;20033;-92
2023/03/18 11:05:46;;;;;;;6.07;3.50;;;;;;;10.80;78.68;101950.97;4982040;28;20059;-94
2023/03/18 11:08:33;;;;;;;6.70;3.40;;;;;;;10.86;79.06;101947.88;5007247;28;20042;-92
2023/03/18 11:11:32;;;;;;;7.68;3.97;;;;;;;10.85;79.99;101944.34;4995701;28;20030;-92
2023/03/18 11:14:02;;;;;;;6.18;3.63;;;;;;;10.90;80.00;101952.50;5000070;28;20057;-92
2023/03/18 11:17:05;;;;;;;7.57;4.13;;;;;;;10.89;80.36;101951.63;4990962;28;20088;-91
2023/03/18 11:19:46;;;;;;;6.47;3.70;;;;;;;10.90;80.38;101948.22;4995737;28;20029;-93
2023/03/18 11:22:28;;;;;;;8.45;3.70;;;;;;;10.96;80.79;101943.44;4981921;28;20034;-93
2023/03/18 11:25:04;;;;;;;7.00;4.00;;;;;;;10.98;81.70;101941.84;5012181;28;20399;-92
2023/03/18 11:28:02;;;;;;;7.03;3.97;;;;;;;11.04;81.22;101940.44;4979500;28;20042;-92
2023/03/18 11:31:00;;;;;;;8.55;4.30;;;;;;;11.06;81.33;101938.84;4975550;28;20050;-91
2023/03/18 11:33:55;;;;;;;11.02;4.10;;;;;;;11.05;82.06;101942.25;4997609;28;20082;-90
2023/03/18 11:36:23;;;;;;;10.35;4.40;;;;;;;11.00;81.88;101928.84;5008520;28;20407;-91
2023/03/18 11:39:02;;;;;;;11.02;4.63;;;;;;;10.84;81.95;101899.81;4978747;28;20129;-91
2023/03/18 11:42:15;;;;;;;10.95;4.70;;;;;;;11.12;82.96;101939.28;5008761;28;20044;-92
2023/03/18 11:45:04;;;;;;;15.23;5.22;;;;;;;11.10;83.63;101941.78;4994260;28;20108;-93
2023/03/18 11:47:33;;;;;;;11.57;5.47;;;;;;;11.12;83.79;101936.69;4995700;28;20065;-91
2023/03/18 11:50:03;;;;;;;13.50;5.22;;;;;;;11.13;83.72;101942.03;5017768;28;20049;-91
2023/03/18 11:52:38;;;;;;;15.05;5.57;;;;;;;11.12;84.13;101936.69;5036403;28;20013;-89
2023/03/18 11:55:25;;;;;;;9.65;5.05;;;;;;;11.09;83.28;101931.22;4997333;28;20038;-94